EHGG/GRQ METAR and TAF weather

Enter ICAO airport designator
Station Type Date Time Source
EHGG METAR 2021/09/16 21:55 UTC NOAA

EHGG 162155Z AUTO 25005KT 6000 FEW016 14/13 Q1016


Station Type Date Time Source
EHGG Decoded METAR 2021/09/16 21:55 UTC NOAA

Groningen Airport Eelde, Netherlands (EHGG) 53-08N 006-35E 4M
Sep 16, 2021 - 05:55 PM EDT / 2021.09.16 2155 UTC
Wind: from the WSW (250 degrees) at 6 MPH (5 KT):0
Visibility: 3 mile(s):0
Sky conditions: mostly clear
Temperature: 57 F (14 C)
Dew Point: 55 F (13 C)
Relative Humidity: 93%
Pressure (altimeter): 30.00 in. Hg (1016 hPa)
ob: EHGG 162155Z AUTO 25005KT 6000 FEW016 14/13 Q1016
cycle: 22

Station Type Date Time Source
EHGG TAF 2021/09/16 21:17 UTC NOAA

TAF
AMD EHGG 162112Z 1621/1724 27008KT 9999 BKN040 PROB30
TEMPO 1621/1706 1200 BCFG PROB30
TEMPO 1710/1716 7000 -SHRA SCT012 FEW018TCU BKN020
BECMG 1721/1724 4500 BR

Example: see airport list